sensor_id;sensor_type;location;lat;lon;timestamp;P1;durP1;ratioP1;P2;durP2;ratioP2
6667;SDS011;3370;47.712;9.082;2022-08-19T00:01:44;8.13;;;5.13;;
6667;SDS011;3370;47.712;9.082;2022-08-19T00:04:14;7.40;;;5.83;;
6667;SDS011;3370;47.712;9.082;2022-08-19T00:06:44;6.97;;;5.47;;
6667;SDS011;3370;47.712;9.082;2022-08-19T00:09:12;5.60;;;5.20;;
6667;SDS011;3370;47.712;9.082;2022-08-19T00:11:41;6.57;;;5.93;;
6667;SDS011;3370;47.712;9.082;2022-08-19T00:14:09;7.50;;;6.80;;
6667;SDS011;3370;47.712;9.082;2022-08-19T00:16:38;8.37;;;7.47;;
6667;SDS011;3370;47.712;9.082;2022-08-19T00:19:06;11.97;;;8.80;;
6667;SDS011;3370;47.712;9.082;2022-08-19T00:21:32;8.10;;;7.37;;
6667;SDS011;3370;47.712;9.082;2022-08-19T00:24:05;8.60;;;7.80;;
6667;SDS011;3370;47.712;9.082;2022-08-19T00:26:33;7.60;;;6.90;;
6667;SDS011;3370;47.712;9.082;2022-08-19T00:28:59;6.40;;;5.90;;
6667;SDS011;3370;47.712;9.082;2022-08-19T00:31:26;7.03;;;6.43;;
6667;SDS011;3370;47.712;9.082;2022-08-19T00:33:52;7.67;;;6.97;;
6667;SDS011;3370;47.712;9.082;2022-08-19T00:36:19;8.80;;;8.00;;
6667;SDS011;3370;47.712;9.082;2022-08-19T00:38:46;9.60;;;7.63;;
6667;SDS011;3370;47.712;9.082;2022-08-19T00:41:13;8.60;;;7.80;;
6667;SDS011;3370;47.712;9.082;2022-08-19T00:43:55;9.83;;;8.83;;
6667;SDS011;3370;47.712;9.082;2022-08-19T00:46:31;9.47;;;8.33;;
6667;SDS011;3370;47.712;9.082;2022-08-19T00:49:00;9.60;;;8.30;;
6667;SDS011;3370;47.712;9.082;2022-08-19T00:52:14;9.40;;;8.13;;
6667;SDS011;3370;47.712;9.082;2022-08-19T00:54:46;9.10;;;8.27;;
6667;SDS011;3370;47.712;9.082;2022-08-19T00:57:15;10.10;;;9.07;;
6667;SDS011;3370;47.712;9.082;2022-08-19T00:59:46;11.57;;;7.77;;
6667;SDS011;3370;47.712;9.082;2022-08-19T01:02:17;10.60;;;9.50;;
6667;SDS011;3370;47.712;9.082;2022-08-19T01:04:43;9.83;;;7.80;;
6667;SDS011;3370;47.712;9.082;2022-08-19T01:07:09;13.03;;;7.87;;
6667;SDS011;3370;47.712;9.082;2022-08-19T01:09:35;9.20;;;8.30;;
6667;SDS011;3370;47.712;9.082;2022-08-19T01:12:01;8.50;;;7.70;;
6667;SDS011;3370;47.712;9.082;2022-08-19T01:14:27;9.70;;;8.70;;
6667;SDS011;3370;47.712;9.082;2022-08-19T01:16:55;9.93;;;8.93;;
6667;SDS011;3370;47.712;9.082;2022-08-19T01:24:31;11.47;;;10.27;;
6667;SDS011;3370;47.712;9.082;2022-08-19T01:26:57;10.80;;;9.70;;
6667;SDS011;3370;47.712;9.082;2022-08-19T01:29:23;10.57;;;9.57;;
6667;SDS011;3370;47.712;9.082;2022-08-19T01:31:49;11.93;;;10.83;;
6667;SDS011;3370;47.712;9.082;2022-08-19T01:34:17;11.47;;;10.37;;
6667;SDS011;3370;47.712;9.082;2022-08-19T01:36:45;14.40;;;10.53;;
6667;SDS011;3370;47.712;9.082;2022-08-19T01:39:14;11.20;;;10.10;;
6667;SDS011;3370;47.712;9.082;2022-08-19T01:41:44;12.67;;;11.33;;
6667;SDS011;3370;47.712;9.082;2022-08-19T01:44:11;14.67;;;11.33;;
6667;SDS011;3370;47.712;9.082;2022-08-19T01:46:37;13.63;;;12.30;;
6667;SDS011;3370;47.712;9.082;2022-08-19T01:49:04;12.10;;;10.47;;
6667;SDS011;3370;47.712;9.082;2022-08-19T01:51:31;12.30;;;11.00;;
6667;SDS011;3370;47.712;9.082;2022-08-19T01:53:57;13.43;;;12.10;;
6667;SDS011;3370;47.712;9.082;2022-08-19T01:56:23;12.07;;;10.83;;
6667;SDS011;3370;47.712;9.082;2022-08-19T01:58:58;13.00;;;10.87;;
6667;SDS011;3370;47.712;9.082;2022-08-19T02:01:28;11.67;;;10.50;;
6667;SDS011;3370;47.712;9.082;2022-08-19T02:03:57;13.07;;;11.87;;
6667;SDS011;3370;47.712;9.082;2022-08-19T02:06:25;13.33;;;11.93;;
6667;SDS011;3370;47.712;9.082;2022-08-19T02:08:51;13.17;;;11.80;;
6667;SDS011;3370;47.712;9.082;2022-08-19T02:11:21;14.70;;;11.50;;
6667;SDS011;3370;47.712;9.082;2022-08-19T02:13:51;12.83;;;11.27;;
6667;SDS011;3370;47.712;9.082;2022-08-19T02:16:19;12.93;;;11.53;;
6667;SDS011;3370;47.712;9.082;2022-08-19T02:18:46;11.63;;;10.43;;
6667;SDS011;3370;47.712;9.082;2022-08-19T02:21:16;13.20;;;11.80;;
6667;SDS011;3370;47.712;9.082;2022-08-19T02:23:43;12.43;;;11.23;;
6667;SDS011;3370;47.712;9.082;2022-08-19T02:26:10;13.03;;;11.27;;
6667;SDS011;3370;47.712;9.082;2022-08-19T02:28:37;11.93;;;10.87;;
6667;SDS011;3370;47.712;9.082;2022-08-19T02:31:08;10.60;;;9.60;;
6667;SDS011;3370;47.712;9.082;2022-08-19T02:33:42;12.40;;;11.20;;
6667;SDS011;3370;47.712;9.082;2022-08-19T02:36:11;10.90;;;9.80;;
6667;SDS011;3370;47.712;9.082;2022-08-19T02:38:38;12.50;;;10.80;;
6667;SDS011;3370;47.712;9.082;2022-08-19T02:41:07;10.43;;;9.30;;
6667;SDS011;3370;47.712;9.082;2022-08-19T02:43:38;11.50;;;10.37;;
6667;SDS011;3370;47.712;9.082;2022-08-19T02:48:59;11.90;;;10.70;;
6667;SDS011;3370;47.712;9.082;2022-08-19T02:51:31;12.43;;;11.13;;
6667;SDS011;3370;47.712;9.082;2022-08-19T02:54:04;11.70;;;10.60;;
6667;SDS011;3370;47.712;9.082;2022-08-19T02:56:33;13.27;;;11.97;;
6667;SDS011;3370;47.712;9.082;2022-08-19T02:59:01;13.20;;;11.90;;
6667;SDS011;3370;47.712;9.082;2022-08-19T03:01:32;14.50;;;12.27;;
6667;SDS011;3370;47.712;9.082;2022-08-19T03:04:00;15.10;;;12.40;;
6667;SDS011;3370;47.712;9.082;2022-08-19T03:06:29;15.27;;;12.80;;
6667;SDS011;3370;47.712;9.082;2022-08-19T03:08:56;14.63;;;13.10;;
6667;SDS011;3370;47.712;9.082;2022-08-19T03:11:23;13.77;;;12.40;;
6667;SDS011;3370;47.712;9.082;2022-08-19T03:13:54;13.70;;;12.30;;
6667;SDS011;3370;47.712;9.082;2022-08-19T03:16:23;15.53;;;13.10;;
6667;SDS011;3370;47.712;9.082;2022-08-19T03:18:51;17.07;;;14.03;;
6667;SDS011;3370;47.712;9.082;2022-08-19T03:21:21;18.87;;;14.77;;
6667;SDS011;3370;47.712;9.082;2022-08-19T03:23:49;15.63;;;13.93;;
6667;SDS011;3370;47.712;9.082;2022-08-19T03:26:19;16.13;;;13.30;;
6667;SDS011;3370;47.712;9.082;2022-08-19T03:28:45;16.20;;;13.33;;
6667;SDS011;3370;47.712;9.082;2022-08-19T03:31:15;15.57;;;13.90;;
6667;SDS011;3370;47.712;9.082;2022-08-19T03:33:49;17.47;;;14.57;;
6667;SDS011;3370;47.712;9.082;2022-08-19T03:36:17;19.07;;;15.07;;
6667;SDS011;3370;47.712;9.082;2022-08-19T03:38:48;19.70;;;14.63;;
6667;SDS011;3370;47.712;9.082;2022-08-19T03:41:21;19.23;;;15.27;;
6667;SDS011;3370;47.712;9.082;2022-08-19T03:43:49;18.20;;;14.93;;
6667;SDS011;3370;47.712;9.082;2022-08-19T03:46:18;20.67;;;16.50;;
6667;SDS011;3370;47.712;9.082;2022-08-19T03:48:51;20.13;;;15.60;;
6667;SDS011;3370;47.712;9.082;2022-08-19T03:51:29;19.87;;;16.83;;
6667;SDS011;3370;47.712;9.082;2022-08-19T03:53:59;24.00;;;15.50;;
6667;SDS011;3370;47.712;9.082;2022-08-19T03:56:27;22.00;;;17.30;;
6667;SDS011;3370;47.712;9.082;2022-08-19T03:58:54;18.90;;;15.57;;
6667;SDS011;3370;47.712;9.082;2022-08-19T04:01:22;24.47;;;17.27;;
6667;SDS011;3370;47.712;9.082;2022-08-19T04:03:53;19.43;;;16.60;;
6667;SDS011;3370;47.712;9.082;2022-08-19T04:06:23;18.03;;;15.80;;
6667;SDS011;3370;47.712;9.082;2022-08-19T04:08:53;22.80;;;16.47;;
6667;SDS011;3370;47.712;9.082;2022-08-19T04:11:21;25.27;;;18.83;;
6667;SDS011;3370;47.712;9.082;2022-08-19T04:13:51;24.23;;;18.27;;
6667;SDS011;3370;47.712;9.082;2022-08-19T04:16:19;23.40;;;17.50;;
6667;SDS011;3370;47.712;9.082;2022-08-19T04:18:47;26.60;;;18.23;;
6667;SDS011;3370;47.712;9.082;2022-08-19T04:21:19;18.53;;;16.07;;
6667;SDS011;3370;47.712;9.082;2022-08-19T04:23:49;24.03;;;19.20;;
6667;SDS011;3370;47.712;9.082;2022-08-19T04:26:17;24.03;;;19.33;;
6667;SDS011;3370;47.712;9.082;2022-08-19T04:28:51;29.47;;;20.30;;
6667;SDS011;3370;47.712;9.082;2022-08-19T04:31:19;23.87;;;19.17;;
6667;SDS011;3370;47.712;9.082;2022-08-19T04:33:51;29.90;;;22.37;;
6667;SDS011;3370;47.712;9.082;2022-08-19T04:36:30;30.43;;;21.80;;
6667;SDS011;3370;47.712;9.082;2022-08-19T04:38:59;30.30;;;20.30;;
6667;SDS011;3370;47.712;9.082;2022-08-19T04:41:30;29.53;;;20.50;;
6667;SDS011;3370;47.712;9.082;2022-08-19T04:44:14;27.17;;;21.10;;
6667;SDS011;3370;47.712;9.082;2022-08-19T04:46:43;26.47;;;20.50;;
6667;SDS011;3370;47.712;9.082;2022-08-19T04:49:10;25.63;;;19.37;;
6667;SDS011;3370;47.712;9.082;2022-08-19T04:51:39;30.33;;;21.00;;
6667;SDS011;3370;47.712;9.082;2022-08-19T04:54:07;29.50;;;22.20;;
6667;SDS011;3370;47.712;9.082;2022-08-19T04:56:33;31.70;;;22.20;;
6667;SDS011;3370;47.712;9.082;2022-08-19T04:58:59;27.90;;;21.03;;
6667;SDS011;3370;47.712;9.082;2022-08-19T05:01:29;29.60;;;21.27;;
6667;SDS011;3370;47.712;9.082;2022-08-19T05:03:58;27.10;;;21.13;;
6667;SDS011;3370;47.712;9.082;2022-08-19T05:06:26;25.93;;;20.63;;
6667;SDS011;3370;47.712;9.082;2022-08-19T05:08:54;31.87;;;20.47;;
6667;SDS011;3370;47.712;9.082;2022-08-19T05:11:24;24.73;;;20.00;;
6667;SDS011;3370;47.712;9.082;2022-08-19T05:13:53;27.50;;;20.83;;
6667;SDS011;3370;47.712;9.082;2022-08-19T05:16:22;30.70;;;21.93;;
6667;SDS011;3370;47.712;9.082;2022-08-19T05:18:49;29.13;;;21.73;;
6667;SDS011;3370;47.712;9.082;2022-08-19T05:21:34;31.90;;;22.40;;
6667;SDS011;3370;47.712;9.082;2022-08-19T05:24:20;26.70;;;21.47;;
6667;SDS011;3370;47.712;9.082;2022-08-19T05:26:48;30.17;;;22.70;;
6667;SDS011;3370;47.712;9.082;2022-08-19T05:29:18;25.87;;;19.90;;
6667;SDS011;3370;47.712;9.082;2022-08-19T05:31:46;28.57;;;22.40;;
6667;SDS011;3370;47.712;9.082;2022-08-19T05:34:14;29.87;;;22.33;;
6667;SDS011;3370;47.712;9.082;2022-08-19T05:36:47;30.47;;;22.67;;
6667;SDS011;3370;47.712;9.082;2022-08-19T05:39:16;28.40;;;21.83;;
6667;SDS011;3370;47.712;9.082;2022-08-19T05:41:46;29.20;;;20.40;;
6667;SDS011;3370;47.712;9.082;2022-08-19T05:44:19;32.73;;;21.60;;
6667;SDS011;3370;47.712;9.082;2022-08-19T05:46:47;27.27;;;20.10;;
6667;SDS011;3370;47.712;9.082;2022-08-19T05:49:14;27.00;;;20.47;;
6667;SDS011;3370;47.712;9.082;2022-08-19T05:51:41;28.60;;;22.00;;
6667;SDS011;3370;47.712;9.082;2022-08-19T05:54:07;31.43;;;21.30;;
6667;SDS011;3370;47.712;9.082;2022-08-19T05:56:34;32.87;;;23.00;;
6667;SDS011;3370;47.712;9.082;2022-08-19T05:59:04;33.13;;;23.73;;
6667;SDS011;3370;47.712;9.082;2022-08-19T06:01:39;29.23;;;21.30;;
6667;SDS011;3370;47.712;9.082;2022-08-19T06:04:09;27.63;;;21.97;;
6667;SDS011;3370;47.712;9.082;2022-08-19T06:06:35;28.83;;;22.27;;
6667;SDS011;3370;47.712;9.082;2022-08-19T06:09:03;34.07;;;22.70;;
6667;SDS011;3370;47.712;9.082;2022-08-19T06:11:32;32.93;;;23.83;;
6667;SDS011;3370;47.712;9.082;2022-08-19T06:14:09;30.67;;;23.97;;
6667;SDS011;3370;47.712;9.082;2022-08-19T06:16:40;32.03;;;23.20;;
6667;SDS011;3370;47.712;9.082;2022-08-19T06:19:08;35.50;;;23.37;;
6667;SDS011;3370;47.712;9.082;2022-08-19T06:21:39;31.37;;;23.13;;
6667;SDS011;3370;47.712;9.082;2022-08-19T06:24:08;33.37;;;24.40;;
6667;SDS011;3370;47.712;9.082;2022-08-19T06:26:39;35.87;;;24.60;;
6667;SDS011;3370;47.712;9.082;2022-08-19T06:29:08;31.33;;;24.40;;
6667;SDS011;3370;47.712;9.082;2022-08-19T06:31:36;34.90;;;24.03;;
6667;SDS011;3370;47.712;9.082;2022-08-19T06:34:07;35.03;;;24.67;;
6667;SDS011;3370;47.712;9.082;2022-08-19T06:36:35;30.67;;;23.70;;
6667;SDS011;3370;47.712;9.082;2022-08-19T06:39:08;40.40;;;24.77;;
6667;SDS011;3370;47.712;9.082;2022-08-19T06:41:44;37.17;;;24.93;;
6667;SDS011;3370;47.712;9.082;2022-08-19T06:44:12;30.43;;;24.47;;
6667;SDS011;3370;47.712;9.082;2022-08-19T06:46:39;32.73;;;26.93;;
6667;SDS011;3370;47.712;9.082;2022-08-19T06:49:07;31.37;;;25.60;;
6667;SDS011;3370;47.712;9.082;2022-08-19T06:51:38;32.87;;;26.60;;
6667;SDS011;3370;47.712;9.082;2022-08-19T06:54:09;32.37;;;26.00;;
6667;SDS011;3370;47.712;9.082;2022-08-19T06:56:35;38.67;;;27.70;;
6667;SDS011;3370;47.712;9.082;2022-08-19T06:59:06;40.53;;;28.83;;
6667;SDS011;3370;47.712;9.082;2022-08-19T07:01:39;38.33;;;28.77;;
6667;SDS011;3370;47.712;9.082;2022-08-19T07:04:11;36.97;;;26.80;;
6667;SDS011;3370;47.712;9.082;2022-08-19T07:06:38;36.30;;;27.73;;
6667;SDS011;3370;47.712;9.082;2022-08-19T07:09:05;35.80;;;25.83;;
6667;SDS011;3370;47.712;9.082;2022-08-19T07:11:33;38.40;;;27.63;;
6667;SDS011;3370;47.712;9.082;2022-08-19T07:14:00;39.17;;;27.90;;
6667;SDS011;3370;47.712;9.082;2022-08-19T07:16:27;38.13;;;26.10;;
6667;SDS011;3370;47.712;9.082;2022-08-19T07:18:54;34.20;;;25.63;;
6667;SDS011;3370;47.712;9.082;2022-08-19T07:21:25;35.90;;;27.60;;
6667;SDS011;3370;47.712;9.082;2022-08-19T07:23:53;35.93;;;26.87;;
6667;SDS011;3370;47.712;9.082;2022-08-19T07:26:28;32.80;;;26.87;;
6667;SDS011;3370;47.712;9.082;2022-08-19T07:29:04;33.50;;;26.53;;
6667;SDS011;3370;47.712;9.082;2022-08-19T07:31:31;31.43;;;26.40;;
6667;SDS011;3370;47.712;9.082;2022-08-19T07:34:02;37.17;;;27.70;;
6667;SDS011;3370;47.712;9.082;2022-08-19T07:36:34;35.30;;;26.77;;
6667;SDS011;3370;47.712;9.082;2022-08-19T07:39:04;35.20;;;26.47;;
6667;SDS011;3370;47.712;9.082;2022-08-19T07:41:53;33.40;;;26.93;;
6667;SDS011;3370;47.712;9.082;2022-08-19T07:44:20;34.73;;;26.33;;
6667;SDS011;3370;47.712;9.082;2022-08-19T07:46:49;33.00;;;26.27;;
6667;SDS011;3370;47.712;9.082;2022-08-19T07:49:21;33.00;;;25.53;;
6667;SDS011;3370;47.712;9.082;2022-08-19T07:51:58;32.57;;;25.63;;
6667;SDS011;3370;47.712;9.082;2022-08-19T07:54:29;31.80;;;25.93;;
6667;SDS011;3370;47.712;9.082;2022-08-19T07:56:59;29.23;;;25.33;;
6667;SDS011;3370;47.712;9.082;2022-08-19T07:59:25;34.23;;;26.67;;
6667;SDS011;3370;47.712;9.082;2022-08-19T08:01:53;33.87;;;25.40;;
6667;SDS011;3370;47.712;9.082;2022-08-19T08:04:21;37.80;;;27.77;;
6667;SDS011;3370;47.712;9.082;2022-08-19T08:07:06;34.03;;;25.97;;
6667;SDS011;3370;47.712;9.082;2022-08-19T08:09:51;33.73;;;26.40;;
6667;SDS011;3370;47.712;9.082;2022-08-19T08:12:21;35.13;;;26.27;;
6667;SDS011;3370;47.712;9.082;2022-08-19T08:14:57;32.47;;;27.50;;
6667;SDS011;3370;47.712;9.082;2022-08-19T08:17:28;33.60;;;27.10;;
6667;SDS011;3370;47.712;9.082;2022-08-19T08:19:55;34.23;;;27.33;;
6667;SDS011;3370;47.712;9.082;2022-08-19T08:22:22;29.80;;;25.17;;
6667;SDS011;3370;47.712;9.082;2022-08-19T08:25:10;32.17;;;26.43;;
6667;SDS011;3370;47.712;9.082;2022-08-19T08:27:44;33.90;;;27.13;;
6667;SDS011;3370;47.712;9.082;2022-08-19T08:30:16;32.93;;;26.83;;
6667;SDS011;3370;47.712;9.082;2022-08-19T08:32:45;33.97;;;25.13;;
6667;SDS011;3370;47.712;9.082;2022-08-19T08:35:13;40.60;;;28.33;;
6667;SDS011;3370;47.712;9.082;2022-08-19T08:37:43;34.67;;;27.07;;
6667;SDS011;3370;47.712;9.082;2022-08-19T08:40:17;33.80;;;25.70;;
6667;SDS011;3370;47.712;9.082;2022-08-19T08:46:05;36.23;;;28.93;;
6667;SDS011;3370;47.712;9.082;2022-08-19T08:52:07;36.60;;;27.10;;
6667;SDS011;3370;47.712;9.082;2022-08-19T08:54:46;35.97;;;28.03;;
6667;SDS011;3370;47.712;9.082;2022-08-19T08:57:38;34.70;;;27.47;;
6667;SDS011;3370;47.712;9.082;2022-08-19T09:03:21;38.50;;;29.90;;
6667;SDS011;3370;47.712;9.082;2022-08-19T09:08:38;41.30;;;29.00;;
6667;SDS011;3370;47.712;9.082;2022-08-19T09:11:24;41.33;;;30.00;;
6667;SDS011;3370;47.712;9.082;2022-08-19T09:16:57;38.33;;;28.93;;
6667;SDS011;3370;47.712;9.082;2022-08-19T09:19:24;35.80;;;27.30;;
6667;SDS011;3370;47.712;9.082;2022-08-19T09:21:50;39.70;;;29.10;;
6667;SDS011;3370;47.712;9.082;2022-08-19T09:24:16;41.97;;;29.60;;
6667;SDS011;3370;47.712;9.082;2022-08-19T09:26:42;41.33;;;30.50;;
6667;SDS011;3370;47.712;9.082;2022-08-19T09:29:09;40.80;;;27.80;;
6667;SDS011;3370;47.712;9.082;2022-08-19T09:31:36;44.83;;;29.97;;
6667;SDS011;3370;47.712;9.082;2022-08-19T09:34:02;38.47;;;27.67;;
6667;SDS011;3370;47.712;9.082;2022-08-19T09:36:30;50.30;;;30.13;;
6667;SDS011;3370;47.712;9.082;2022-08-19T09:38:58;39.87;;;29.47;;
6667;SDS011;3370;47.712;9.082;2022-08-19T09:41:25;40.10;;;27.87;;
6667;SDS011;3370;47.712;9.082;2022-08-19T09:43:53;36.73;;;27.60;;
6667;SDS011;3370;47.712;9.082;2022-08-19T09:46:24;36.70;;;26.37;;
6667;SDS011;3370;47.712;9.082;2022-08-19T09:48:54;38.13;;;25.70;;
6667;SDS011;3370;47.712;9.082;2022-08-19T09:51:24;37.20;;;25.03;;
6667;SDS011;3370;47.712;9.082;2022-08-19T09:53:53;38.43;;;26.33;;
6667;SDS011;3370;47.712;9.082;2022-08-19T09:56:23;35.23;;;25.80;;
6667;SDS011;3370;47.712;9.082;2022-08-19T09:58:49;40.43;;;25.67;;
6667;SDS011;3370;47.712;9.082;2022-08-19T10:01:16;35.53;;;23.13;;
6667;SDS011;3370;47.712;9.082;2022-08-19T10:03:49;32.63;;;23.17;;
6667;SDS011;3370;47.712;9.082;2022-08-19T10:06:21;39.40;;;24.13;;
6667;SDS011;3370;47.712;9.082;2022-08-19T10:08:49;38.83;;;26.30;;
6667;SDS011;3370;47.712;9.082;2022-08-19T10:11:16;38.73;;;22.07;;
6667;SDS011;3370;47.712;9.082;2022-08-19T10:13:44;36.63;;;25.73;;
6667;SDS011;3370;47.712;9.082;2022-08-19T10:16:12;36.50;;;25.67;;
6667;SDS011;3370;47.712;9.082;2022-08-19T10:18:44;37.40;;;26.33;;
6667;SDS011;3370;47.712;9.082;2022-08-19T10:21:14;41.70;;;28.27;;
6667;SDS011;3370;47.712;9.082;2022-08-19T10:23:45;53.80;;;33.67;;
6667;SDS011;3370;47.712;9.082;2022-08-19T10:26:15;49.40;;;34.43;;
6667;SDS011;3370;47.712;9.082;2022-08-19T10:28:45;46.30;;;31.77;;
6667;SDS011;3370;47.712;9.082;2022-08-19T10:31:12;43.07;;;30.37;;
6667;SDS011;3370;47.712;9.082;2022-08-19T10:33:45;50.50;;;33.93;;
6667;SDS011;3370;47.712;9.082;2022-08-19T10:36:17;44.77;;;30.67;;
6667;SDS011;3370;47.712;9.082;2022-08-19T10:38:48;44.93;;;29.70;;
6667;SDS011;3370;47.712;9.082;2022-08-19T10:41:17;52.47;;;30.47;;
6667;SDS011;3370;47.712;9.082;2022-08-19T10:43:53;48.93;;;33.90;;
6667;SDS011;3370;47.712;9.082;2022-08-19T10:46:26;61.67;;;33.73;;
6667;SDS011;3370;47.712;9.082;2022-08-19T10:48:58;55.17;;;33.97;;
6667;SDS011;3370;47.712;9.082;2022-08-19T10:51:26;55.43;;;33.80;;
6667;SDS011;3370;47.712;9.082;2022-08-19T10:54:11;59.40;;;35.77;;
6667;SDS011;3370;47.712;9.082;2022-08-19T10:56:37;59.87;;;34.90;;
6667;SDS011;3370;47.712;9.082;2022-08-19T10:59:19;51.67;;;33.70;;
6667;SDS011;3370;47.712;9.082;2022-08-19T11:01:53;52.73;;;34.03;;
6667;SDS011;3370;47.712;9.082;2022-08-19T11:04:27;50.90;;;30.47;;
6667;SDS011;3370;47.712;9.082;2022-08-19T11:06:53;46.57;;;30.83;;
6667;SDS011;3370;47.712;9.082;2022-08-19T11:09:21;46.20;;;32.10;;
6667;SDS011;3370;47.712;9.082;2022-08-19T11:11:49;41.90;;;29.80;;
6667;SDS011;3370;47.712;9.082;2022-08-19T11:14:18;43.77;;;30.30;;
6667;SDS011;3370;47.712;9.082;2022-08-19T11:16:46;50.40;;;32.20;;
6667;SDS011;3370;47.712;9.082;2022-08-19T11:19:14;53.57;;;32.03;;
6667;SDS011;3370;47.712;9.082;2022-08-19T11:21:44;52.67;;;32.77;;
6667;SDS011;3370;47.712;9.082;2022-08-19T11:24:17;50.93;;;32.87;;
6667;SDS011;3370;47.712;9.082;2022-08-19T11:26:46;49.60;;;32.17;;
6667;SDS011;3370;47.712;9.082;2022-08-19T11:29:14;48.33;;;32.80;;
6667;SDS011;3370;47.712;9.082;2022-08-19T11:31:46;49.90;;;33.53;;
6667;SDS011;3370;47.712;9.082;2022-08-19T11:34:15;50.57;;;32.27;;
6667;SDS011;3370;47.712;9.082;2022-08-19T11:36:46;50.10;;;33.50;;
6667;SDS011;3370;47.712;9.082;2022-08-19T11:39:14;51.73;;;35.90;;
6667;SDS011;3370;47.712;9.082;2022-08-19T11:41:42;55.33;;;38.37;;
6667;SDS011;3370;47.712;9.082;2022-08-19T11:44:09;53.87;;;37.13;;
6667;SDS011;3370;47.712;9.082;2022-08-19T11:46:36;57.03;;;37.23;;
6667;SDS011;3370;47.712;9.082;2022-08-19T11:49:03;55.43;;;37.23;;
6667;SDS011;3370;47.712;9.082;2022-08-19T11:51:32;54.60;;;37.97;;
6667;SDS011;3370;47.712;9.082;2022-08-19T11:53:59;59.80;;;37.40;;
6667;SDS011;3370;47.712;9.082;2022-08-19T11:56:26;61.33;;;38.53;;
6667;SDS011;3370;47.712;9.082;2022-08-19T11:58:53;56.73;;;35.50;;
6667;SDS011;3370;47.712;9.082;2022-08-19T12:01:22;55.20;;;37.30;;
6667;SDS011;3370;47.712;9.082;2022-08-19T12:03:50;51.90;;;36.43;;
6667;SDS011;3370;47.712;9.082;2022-08-19T12:06:19;53.87;;;35.90;;
6667;SDS011;3370;47.712;9.082;2022-08-19T12:08:53;49.40;;;35.10;;
6667;SDS011;3370;47.712;9.082;2022-08-19T12:11:21;50.73;;;34.63;;
6667;SDS011;3370;47.712;9.082;2022-08-19T12:13:49;51.07;;;34.60;;
6667;SDS011;3370;47.712;9.082;2022-08-19T12:16:17;45.27;;;32.73;;
6667;SDS011;3370;47.712;9.082;2022-08-19T12:18:48;58.53;;;36.33;;
6667;SDS011;3370;47.712;9.082;2022-08-19T12:21:18;51.10;;;36.63;;
6667;SDS011;3370;47.712;9.082;2022-08-19T12:23:53;50.60;;;33.33;;
6667;SDS011;3370;47.712;9.082;2022-08-19T12:26:19;52.07;;;34.90;;
6667;SDS011;3370;47.712;9.082;2022-08-19T12:28:46;49.53;;;36.00;;
6667;SDS011;3370;47.712;9.082;2022-08-19T12:31:13;50.30;;;35.63;;
6667;SDS011;3370;47.712;9.082;2022-08-19T12:33:40;51.67;;;36.63;;
6667;SDS011;3370;47.712;9.082;2022-08-19T12:36:07;49.07;;;35.63;;
6667;SDS011;3370;47.712;9.082;2022-08-19T12:38:36;48.97;;;34.60;;
6667;SDS011;3370;47.712;9.082;2022-08-19T12:41:03;41.37;;;32.03;;
6667;SDS011;3370;47.712;9.082;2022-08-19T12:43:31;44.33;;;32.93;;
6667;SDS011;3370;47.712;9.082;2022-08-19T12:45:59;43.00;;;31.63;;
6667;SDS011;3370;47.712;9.082;2022-08-19T12:48:26;42.90;;;33.63;;
6667;SDS011;3370;47.712;9.082;2022-08-19T12:50:52;42.93;;;32.87;;
6667;SDS011;3370;47.712;9.082;2022-08-19T12:53:19;41.20;;;33.00;;
6667;SDS011;3370;47.712;9.082;2022-08-19T12:55:45;43.97;;;35.10;;
6667;SDS011;3370;47.712;9.082;2022-08-19T12:58:10;45.73;;;33.90;;
6667;SDS011;3370;47.712;9.082;2022-08-19T13:00:37;41.40;;;32.10;;
6667;SDS011;3370;47.712;9.082;2022-08-19T13:03:04;39.10;;;31.33;;
6667;SDS011;3370;47.712;9.082;2022-08-19T13:05:31;42.07;;;31.00;;
6667;SDS011;3370;47.712;9.082;2022-08-19T13:07:59;39.70;;;31.47;;
6667;SDS011;3370;47.712;9.082;2022-08-19T13:10:27;46.63;;;33.37;;
6667;SDS011;3370;47.712;9.082;2022-08-19T13:13:00;41.67;;;32.63;;
6667;SDS011;3370;47.712;9.082;2022-08-19T13:15:33;42.47;;;33.00;;
6667;SDS011;3370;47.712;9.082;2022-08-19T13:18:01;45.13;;;34.40;;
6667;SDS011;3370;47.712;9.082;2022-08-19T13:20:27;39.47;;;31.50;;
6667;SDS011;3370;47.712;9.082;2022-08-19T13:22:53;41.30;;;32.30;;
6667;SDS011;3370;47.712;9.082;2022-08-19T13:25:20;39.60;;;32.13;;
6667;SDS011;3370;47.712;9.082;2022-08-19T13:27:46;41.10;;;32.87;;
6667;SDS011;3370;47.712;9.082;2022-08-19T13:30:15;40.90;;;31.03;;
6667;SDS011;3370;47.712;9.082;2022-08-19T13:33:04;40.83;;;31.77;;
6667;SDS011;3370;47.712;9.082;2022-08-19T13:35:40;39.03;;;31.47;;
6667;SDS011;3370;47.712;9.082;2022-08-19T13:38:16;41.37;;;32.83;;
6667;SDS011;3370;47.712;9.082;2022-08-19T13:40:45;40.37;;;31.00;;
6667;SDS011;3370;47.712;9.082;2022-08-19T13:43:12;40.13;;;31.77;;
6667;SDS011;3370;47.712;9.082;2022-08-19T13:45:38;45.63;;;32.97;;
6667;SDS011;3370;47.712;9.082;2022-08-19T13:48:05;40.47;;;30.93;;
6667;SDS011;3370;47.712;9.082;2022-08-19T13:50:34;43.20;;;32.30;;
6667;SDS011;3370;47.712;9.082;2022-08-19T13:53:06;39.80;;;31.13;;
6667;SDS011;3370;47.712;9.082;2022-08-19T13:55:34;42.13;;;32.93;;
6667;SDS011;3370;47.712;9.082;2022-08-19T13:58:05;42.07;;;33.20;;
6667;SDS011;3370;47.712;9.082;2022-08-19T14:00:33;35.90;;;30.57;;
6667;SDS011;3370;47.712;9.082;2022-08-19T14:03:04;32.17;;;26.60;;
6667;SDS011;3370;47.712;9.082;2022-08-19T14:05:30;35.13;;;27.60;;
6667;SDS011;3370;47.712;9.082;2022-08-19T14:07:57;35.63;;;26.83;;
6667;SDS011;3370;47.712;9.082;2022-08-19T14:10:24;37.00;;;30.33;;
6667;SDS011;3370;47.712;9.082;2022-08-19T14:12:55;33.33;;;27.37;;
6667;SDS011;3370;47.712;9.082;2022-08-19T14:15:25;35.87;;;29.37;;
6667;SDS011;3370;47.712;9.082;2022-08-19T14:17:52;38.37;;;30.10;;
6667;SDS011;3370;47.712;9.082;2022-08-19T14:20:19;39.30;;;32.00;;
6667;SDS011;3370;47.712;9.082;2022-08-19T14:22:46;40.77;;;33.77;;
6667;SDS011;3370;47.712;9.082;2022-08-19T14:25:15;41.07;;;32.83;;
6667;SDS011;3370;47.712;9.082;2022-08-19T14:27:45;46.20;;;32.73;;
6667;SDS011;3370;47.712;9.082;2022-08-19T14:30:14;45.67;;;33.63;;
6667;SDS011;3370;47.712;9.082;2022-08-19T14:32:50;48.13;;;36.23;;
6667;SDS011;3370;47.712;9.082;2022-08-19T14:35:16;47.87;;;37.10;;
6667;SDS011;3370;47.712;9.082;2022-08-19T14:37:43;58.10;;;41.43;;
6667;SDS011;3370;47.712;9.082;2022-08-19T14:40:10;58.80;;;41.97;;
6667;SDS011;3370;47.712;9.082;2022-08-19T14:42:38;58.00;;;40.93;;
6667;SDS011;3370;47.712;9.082;2022-08-19T14:45:04;52.77;;;38.90;;
6667;SDS011;3370;47.712;9.082;2022-08-19T14:47:31;55.90;;;41.33;;
6667;SDS011;3370;47.712;9.082;2022-08-19T14:49:57;57.77;;;41.20;;
6667;SDS011;3370;47.712;9.082;2022-08-19T14:52:23;61.00;;;40.97;;
6667;SDS011;3370;47.712;9.082;2022-08-19T14:54:48;61.23;;;42.33;;
6667;SDS011;3370;47.712;9.082;2022-08-19T14:57:15;63.77;;;42.47;;
6667;SDS011;3370;47.712;9.082;2022-08-19T14:59:42;55.00;;;41.67;;
6667;SDS011;3370;47.712;9.082;2022-08-19T15:02:09;66.20;;;46.37;;
6667;SDS011;3370;47.712;9.082;2022-08-19T15:04:35;62.97;;;46.20;;
6667;SDS011;3370;47.712;9.082;2022-08-19T15:07:02;66.40;;;46.90;;
6667;SDS011;3370;47.712;9.082;2022-08-19T15:09:29;64.70;;;46.73;;
6667;SDS011;3370;47.712;9.082;2022-08-19T15:11:57;70.43;;;50.20;;
6667;SDS011;3370;47.712;9.082;2022-08-19T15:14:25;69.87;;;50.50;;
6667;SDS011;3370;47.712;9.082;2022-08-19T15:16:52;76.67;;;48.37;;
6667;SDS011;3370;47.712;9.082;2022-08-19T15:19:18;69.00;;;49.37;;
6667;SDS011;3370;47.712;9.082;2022-08-19T15:21:44;69.90;;;48.00;;
6667;SDS011;3370;47.712;9.082;2022-08-19T15:24:10;73.30;;;49.20;;
6667;SDS011;3370;47.712;9.082;2022-08-19T15:26:36;66.87;;;47.83;;
6667;SDS011;3370;47.712;9.082;2022-08-19T15:29:02;68.70;;;48.50;;